Terminal Aerodrome Forecast
Issued by NWS Albany, NY

Home | Current Version | Previous Version | Text Only | Print | Product List | Glossary On
Versions: 1 2 3 4 5 6 7 8 9 10 11 12 13 14 15 16 17
199
FTUS41 KALY 041720
TAFPOU
TAF
KPOU 041720Z 0418/0518 32006KT P6SM FEW030
     FM042300 00000KT P6SM BKN200
     FM050600 VRB03KT P6SM VCSH OVC050
     FM050800 17003KT 2SM -SN OVC015
     FM051500 23005KT 5SM -RASN OVC025=

USA.gov is the U.S. government's official web portal to all federal, state and local government web resources and services.